sensor_id;sensor_type;location;lat;lon;timestamp;temperature;humidity
29403;DHT22;16382;59.942;30.472;2023-05-10T00:01:28;8.40;91.80
29403;DHT22;16382;59.942;30.472;2023-05-10T00:03:55;8.40;93.40
29403;DHT22;16382;59.942;30.472;2023-05-10T00:06:23;8.40;95.70
29403;DHT22;16382;59.942;30.472;2023-05-10T00:08:50;8.40;97.40
29403;DHT22;16382;59.942;30.472;2023-05-10T00:11:19;8.40;98.80
29403;DHT22;16382;59.942;30.472;2023-05-10T00:13:46;8.40;99.90
29403;DHT22;16382;59.942;30.472;2023-05-10T00:16:14;8.30;99.90
29403;DHT22;16382;59.942;30.472;2023-05-10T00:18:41;8.30;99.90
29403;DHT22;16382;59.942;30.472;2023-05-10T00:21:08;8.30;99.90
29403;DHT22;16382;59.942;30.472;2023-05-10T00:23:35;8.30;99.90
29403;DHT22;16382;59.942;30.472;2023-05-10T00:26:03;8.30;99.90
29403;DHT22;16382;59.942;30.472;2023-05-10T00:28:32;8.20;99.90
29403;DHT22;16382;59.942;30.472;2023-05-10T00:30:59;8.20;99.90
29403;DHT22;16382;59.942;30.472;2023-05-10T00:33:26;8.10;99.90
29403;DHT22;16382;59.942;30.472;2023-05-10T00:35:53;8.10;99.90
29403;DHT22;16382;59.942;30.472;2023-05-10T00:38:21;8.10;99.90
29403;DHT22;16382;59.942;30.472;2023-05-10T00:40:48;8.00;99.90
29403;DHT22;16382;59.942;30.472;2023-05-10T00:43:23;8.00;99.90
29403;DHT22;16382;59.942;30.472;2023-05-10T00:45:52;8.00;99.90
29403;DHT22;16382;59.942;30.472;2023-05-10T00:48:20;8.00;99.90
29403;DHT22;16382;59.942;30.472;2023-05-10T00:50:47;7.90;99.90
29403;DHT22;16382;59.942;30.472;2023-05-10T00:53:15;7.90;99.90
29403;DHT22;16382;59.942;30.472;2023-05-10T00:55:43;7.80;99.90
29403;DHT22;16382;59.942;30.472;2023-05-10T00:58:12;7.80;99.90
29403;DHT22;16382;59.942;30.472;2023-05-10T01:00:41;7.80;99.90
29403;DHT22;16382;59.942;30.472;2023-05-10T01:03:11;7.80;99.90
29403;DHT22;16382;59.942;30.472;2023-05-10T01:05:38;7.70;99.90
29403;DHT22;16382;59.942;30.472;2023-05-10T01:08:06;7.70;99.90
29403;DHT22;16382;59.942;30.472;2023-05-10T01:10:34;7.60;99.90
29403;DHT22;16382;59.942;30.472;2023-05-10T01:13:02;7.60;99.90
29403;DHT22;16382;59.942;30.472;2023-05-10T01:15:30;7.60;99.90
29403;DHT22;16382;59.942;30.472;2023-05-10T01:17:58;7.60;99.90
29403;DHT22;16382;59.942;30.472;2023-05-10T01:20:28;7.50;99.90
29403;DHT22;16382;59.942;30.472;2023-05-10T01:23:22;7.50;99.90
29403;DHT22;16382;59.942;30.472;2023-05-10T01:26:14;7.40;99.90
29403;DHT22;16382;59.942;30.472;2023-05-10T01:29:18;7.40;99.90
29403;DHT22;16382;59.942;30.472;2023-05-10T01:32:14;7.30;99.90
29403;DHT22;16382;59.942;30.472;2023-05-10T01:34:51;7.30;99.90
29403;DHT22;16382;59.942;30.472;2023-05-10T01:37:23;7.30;99.90
29403;DHT22;16382;59.942;30.472;2023-05-10T01:39:57;7.30;99.90
29403;DHT22;16382;59.942;30.472;2023-05-10T01:42:35;7.30;99.90
29403;DHT22;16382;59.942;30.472;2023-05-10T01:45:13;7.30;99.90
29403;DHT22;16382;59.942;30.472;2023-05-10T01:47:45;7.40;99.90
29403;DHT22;16382;59.942;30.472;2023-05-10T01:50:17;7.30;99.90
29403;DHT22;16382;59.942;30.472;2023-05-10T01:52:55;7.30;99.90
29403;DHT22;16382;59.942;30.472;2023-05-10T01:55:25;7.30;99.90
29403;DHT22;16382;59.942;30.472;2023-05-10T01:58:02;7.30;99.90
29403;DHT22;16382;59.942;30.472;2023-05-10T02:00:31;7.30;99.90
29403;DHT22;16382;59.942;30.472;2023-05-10T02:03:04;7.40;99.90
29403;DHT22;16382;59.942;30.472;2023-05-10T02:05:33;7.40;99.90
29403;DHT22;16382;59.942;30.472;2023-05-10T02:08:01;7.40;99.90
29403;DHT22;16382;59.942;30.472;2023-05-10T02:10:30;7.30;99.90
29403;DHT22;16382;59.942;30.472;2023-05-10T02:12:59;7.30;99.90
29403;DHT22;16382;59.942;30.472;2023-05-10T02:15:27;7.30;99.90
29403;DHT22;16382;59.942;30.472;2023-05-10T02:17:57;7.30;99.90
29403;DHT22;16382;59.942;30.472;2023-05-10T02:20:27;7.30;99.90
29403;DHT22;16382;59.942;30.472;2023-05-10T02:22:55;7.30;99.90
29403;DHT22;16382;59.942;30.472;2023-05-10T02:25:23;7.30;99.90
29403;DHT22;16382;59.942;30.472;2023-05-10T02:27:54;7.30;99.90
29403;DHT22;16382;59.942;30.472;2023-05-10T02:30:23;7.30;99.90
29403;DHT22;16382;59.942;30.472;2023-05-10T02:32:51;7.40;99.90
29403;DHT22;16382;59.942;30.472;2023-05-10T02:35:19;7.40;99.90
29403;DHT22;16382;59.942;30.472;2023-05-10T02:37:48;7.40;99.90
29403;DHT22;16382;59.942;30.472;2023-05-10T02:40:17;7.30;99.90
29403;DHT22;16382;59.942;30.472;2023-05-10T02:42:48;7.30;99.90
29403;DHT22;16382;59.942;30.472;2023-05-10T02:45:19;7.30;99.90
29403;DHT22;16382;59.942;30.472;2023-05-10T02:47:47;7.20;99.90
29403;DHT22;16382;59.942;30.472;2023-05-10T02:50:15;7.30;99.90
29403;DHT22;16382;59.942;30.472;2023-05-10T02:52:44;7.30;99.90
29403;DHT22;16382;59.942;30.472;2023-05-10T02:55:16;7.30;99.90
29403;DHT22;16382;59.942;30.472;2023-05-10T02:57:48;7.30;99.90
29403;DHT22;16382;59.942;30.472;2023-05-10T03:00:16;7.30;99.90
29403;DHT22;16382;59.942;30.472;2023-05-10T03:02:44;7.30;99.90
29403;DHT22;16382;59.942;30.472;2023-05-10T03:05:11;7.30;99.90
29403;DHT22;16382;59.942;30.472;2023-05-10T03:07:38;7.30;99.90
29403;DHT22;16382;59.942;30.472;2023-05-10T03:10:07;7.30;99.90
29403;DHT22;16382;59.942;30.472;2023-05-10T03:12:52;7.30;99.90
29403;DHT22;16382;59.942;30.472;2023-05-10T03:15:32;7.30;99.90
29403;DHT22;16382;59.942;30.472;2023-05-10T03:18:04;7.40;99.90
29403;DHT22;16382;59.942;30.472;2023-05-10T03:20:37;7.40;99.90
29403;DHT22;16382;59.942;30.472;2023-05-10T03:23:12;7.40;99.90
29403;DHT22;16382;59.942;30.472;2023-05-10T03:25:41;7.50;99.90
29403;DHT22;16382;59.942;30.472;2023-05-10T03:28:12;7.50;99.90
29403;DHT22;16382;59.942;30.472;2023-05-10T03:30:43;7.50;99.90
29403;DHT22;16382;59.942;30.472;2023-05-10T03:33:11;7.50;99.90
29403;DHT22;16382;59.942;30.472;2023-05-10T03:35:42;7.60;99.90
29403;DHT22;16382;59.942;30.472;2023-05-10T03:38:12;7.60;99.90
29403;DHT22;16382;59.942;30.472;2023-05-10T03:40:40;7.60;99.90
29403;DHT22;16382;59.942;30.472;2023-05-10T03:43:08;7.70;99.90
29403;DHT22;16382;59.942;30.472;2023-05-10T03:45:36;7.80;99.90
29403;DHT22;16382;59.942;30.472;2023-05-10T03:48:04;7.90;99.90
29403;DHT22;16382;59.942;30.472;2023-05-10T03:50:32;8.00;99.90
29403;DHT22;16382;59.942;30.472;2023-05-10T03:52:59;8.10;99.90
29403;DHT22;16382;59.942;30.472;2023-05-10T03:55:27;8.10;99.90
29403;DHT22;16382;59.942;30.472;2023-05-10T03:57:55;8.20;99.90
29403;DHT22;16382;59.942;30.472;2023-05-10T04:00:23;8.30;99.90
29403;DHT22;16382;59.942;30.472;2023-05-10T04:02:55;8.40;99.90
29403;DHT22;16382;59.942;30.472;2023-05-10T04:05:23;8.50;99.90
29403;DHT22;16382;59.942;30.472;2023-05-10T04:07:52;8.60;99.90
29403;DHT22;16382;59.942;30.472;2023-05-10T04:10:20;8.70;99.90
29403;DHT22;16382;59.942;30.472;2023-05-10T04:12:47;8.80;99.90
29403;DHT22;16382;59.942;30.472;2023-05-10T04:15:14;8.90;99.90
29403;DHT22;16382;59.942;30.472;2023-05-10T04:17:41;8.90;99.90
29403;DHT22;16382;59.942;30.472;2023-05-10T04:20:11;9.10;99.90
29403;DHT22;16382;59.942;30.472;2023-05-10T04:22:39;9.20;99.90
29403;DHT22;16382;59.942;30.472;2023-05-10T04:25:07;9.30;99.90
29403;DHT22;16382;59.942;30.472;2023-05-10T04:27:34;9.50;99.90
29403;DHT22;16382;59.942;30.472;2023-05-10T04:30:02;9.60;99.90
29403;DHT22;16382;59.942;30.472;2023-05-10T04:32:32;9.80;99.90
29403;DHT22;16382;59.942;30.472;2023-05-10T04:34:59;9.90;99.90
29403;DHT22;16382;59.942;30.472;2023-05-10T04:37:31;10.00;99.90
29403;DHT22;16382;59.942;30.472;2023-05-10T04:39:59;10.20;99.90
29403;DHT22;16382;59.942;30.472;2023-05-10T04:42:27;10.30;99.90
29403;DHT22;16382;59.942;30.472;2023-05-10T04:44:54;10.40;99.90
29403;DHT22;16382;59.942;30.472;2023-05-10T04:47:21;10.60;99.40
29403;DHT22;16382;59.942;30.472;2023-05-10T04:49:48;10.70;98.10
29403;DHT22;16382;59.942;30.472;2023-05-10T04:52:15;10.80;97.00
29403;DHT22;16382;59.942;30.472;2023-05-10T04:54:45;10.90;95.70
29403;DHT22;16382;59.942;30.472;2023-05-10T04:57:12;11.00;95.00
29403;DHT22;16382;59.942;30.472;2023-05-10T04:59:39;11.10;94.00
29403;DHT22;16382;59.942;30.472;2023-05-10T05:02:06;11.20;93.40
29403;DHT22;16382;59.942;30.472;2023-05-10T05:04:34;11.40;92.70
29403;DHT22;16382;59.942;30.472;2023-05-10T05:07:01;11.50;91.70
29403;DHT22;16382;59.942;30.472;2023-05-10T05:09:28;11.70;90.40
29403;DHT22;16382;59.942;30.472;2023-05-10T05:11:59;11.80;89.30
29403;DHT22;16382;59.942;30.472;2023-05-10T05:14:26;12.00;86.60
29403;DHT22;16382;59.942;30.472;2023-05-10T05:16:53;12.20;81.70
29403;DHT22;16382;59.942;30.472;2023-05-10T05:19:21;12.30;78.80
29403;DHT22;16382;59.942;30.472;2023-05-10T05:21:48;12.60;77.50
29403;DHT22;16382;59.942;30.472;2023-05-10T05:24:16;13.10;75.80
29403;DHT22;16382;59.942;30.472;2023-05-10T05:26:43;13.60;75.40
29403;DHT22;16382;59.942;30.472;2023-05-10T05:29:12;14.20;73.60
29403;DHT22;16382;59.942;30.472;2023-05-10T05:31:39;14.80;70.70
29403;DHT22;16382;59.942;30.472;2023-05-10T05:34:06;15.40;69.00
29403;DHT22;16382;59.942;30.472;2023-05-10T05:36:39;16.00;63.90
29403;DHT22;16382;59.942;30.472;2023-05-10T05:39:07;16.40;60.00
29403;DHT22;16382;59.942;30.472;2023-05-10T05:41:37;16.70;58.30
29403;DHT22;16382;59.942;30.472;2023-05-10T05:44:05;17.10;56.90
29403;DHT22;16382;59.942;30.472;2023-05-10T05:46:34;17.50;55.50
29403;DHT22;16382;59.942;30.472;2023-05-10T05:49:01;18.00;53.30
29403;DHT22;16382;59.942;30.472;2023-05-10T05:51:28;18.40;51.50
29403;DHT22;16382;59.942;30.472;2023-05-10T05:53:56;18.70;50.40
29403;DHT22;16382;59.942;30.472;2023-05-10T05:56:23;19.20;50.10
29403;DHT22;16382;59.942;30.472;2023-05-10T05:58:50;19.40;48.00
29403;DHT22;16382;59.942;30.472;2023-05-10T06:01:18;19.60;48.40
29403;DHT22;16382;59.942;30.472;2023-05-10T06:03:47;19.70;48.30
29403;DHT22;16382;59.942;30.472;2023-05-10T06:06:14;19.90;47.20
29403;DHT22;16382;59.942;30.472;2023-05-10T06:08:41;20.00;47.10
29403;DHT22;16382;59.942;30.472;2023-05-10T06:11:09;20.20;47.40
29403;DHT22;16382;59.942;30.472;2023-05-10T06:13:36;20.60;47.60
29403;DHT22;16382;59.942;30.472;2023-05-10T06:16:04;21.00;48.00
29403;DHT22;16382;59.942;30.472;2023-05-10T06:18:31;21.50;47.00
29403;DHT22;16382;59.942;30.472;2023-05-10T06:20:59;21.70;47.20
29403;DHT22;16382;59.942;30.472;2023-05-10T06:23:27;21.90;46.90
29403;DHT22;16382;59.942;30.472;2023-05-10T06:25:54;22.00;46.40
29403;DHT22;16382;59.942;30.472;2023-05-10T06:28:21;22.00;46.60
29403;DHT22;16382;59.942;30.472;2023-05-10T06:30:49;22.30;46.30
29403;DHT22;16382;59.942;30.472;2023-05-10T06:33:16;22.30;46.20
29403;DHT22;16382;59.942;30.472;2023-05-10T06:35:44;22.30;46.00
29403;DHT22;16382;59.942;30.472;2023-05-10T06:38:12;22.50;45.60
29403;DHT22;16382;59.942;30.472;2023-05-10T06:40:41;22.70;45.30
29403;DHT22;16382;59.942;30.472;2023-05-10T06:43:09;22.90;45.20
29403;DHT22;16382;59.942;30.472;2023-05-10T06:45:36;23.10;44.90
29403;DHT22;16382;59.942;30.472;2023-05-10T06:48:04;23.40;45.00
29403;DHT22;16382;59.942;30.472;2023-05-10T06:50:31;23.50;44.10
29403;DHT22;16382;59.942;30.472;2023-05-10T06:52:59;23.60;44.30
29403;DHT22;16382;59.942;30.472;2023-05-10T06:55:28;23.90;44.00
29403;DHT22;16382;59.942;30.472;2023-05-10T06:57:55;24.00;43.60
29403;DHT22;16382;59.942;30.472;2023-05-10T07:00:22;24.10;43.40
29403;DHT22;16382;59.942;30.472;2023-05-10T07:02:50;24.20;43.30
29403;DHT22;16382;59.942;30.472;2023-05-10T07:05:17;24.40;43.00
29403;DHT22;16382;59.942;30.472;2023-05-10T07:07:44;24.50;43.10
29403;DHT22;16382;59.942;30.472;2023-05-10T07:10:12;24.70;42.90
29403;DHT22;16382;59.942;30.472;2023-05-10T07:12:40;24.80;42.90
29403;DHT22;16382;59.942;30.472;2023-05-10T07:15:08;24.80;42.50
29403;DHT22;16382;59.942;30.472;2023-05-10T07:17:36;24.90;42.60
29403;DHT22;16382;59.942;30.472;2023-05-10T07:20:04;24.80;42.80
29403;DHT22;16382;59.942;30.472;2023-05-10T07:22:32;25.10;42.80
29403;DHT22;16382;59.942;30.472;2023-05-10T07:24:59;25.10;42.00
29403;DHT22;16382;59.942;30.472;2023-05-10T07:27:26;25.10;42.70
29403;DHT22;16382;59.942;30.472;2023-05-10T07:29:55;25.10;42.30
29403;DHT22;16382;59.942;30.472;2023-05-10T07:32:22;25.10;42.50
29403;DHT22;16382;59.942;30.472;2023-05-10T07:34:50;25.10;42.20
29403;DHT22;16382;59.942;30.472;2023-05-10T07:37:17;25.20;42.60
29403;DHT22;16382;59.942;30.472;2023-05-10T07:39:44;25.40;42.00
29403;DHT22;16382;59.942;30.472;2023-05-10T07:42:11;25.70;41.40
29403;DHT22;16382;59.942;30.472;2023-05-10T07:44:39;26.00;41.40
29403;DHT22;16382;59.942;30.472;2023-05-10T07:47:07;26.10;42.10
29403;DHT22;16382;59.942;30.472;2023-05-10T07:49:34;26.20;41.50
29403;DHT22;16382;59.942;30.472;2023-05-10T07:52:03;26.70;40.90
29403;DHT22;16382;59.942;30.472;2023-05-10T07:54:30;27.10;41.10
29403;DHT22;16382;59.942;30.472;2023-05-10T07:56:57;27.30;40.00
29403;DHT22;16382;59.942;30.472;2023-05-10T07:59:25;27.50;38.60
29403;DHT22;16382;59.942;30.472;2023-05-10T08:01:53;27.20;38.80
29403;DHT22;16382;59.942;30.472;2023-05-10T08:04:21;27.20;38.60
29403;DHT22;16382;59.942;30.472;2023-05-10T08:06:49;27.50;38.70
29403;DHT22;16382;59.942;30.472;2023-05-10T08:09:16;27.80;39.50
29403;DHT22;16382;59.942;30.472;2023-05-10T08:11:44;28.00;37.70
29403;DHT22;16382;59.942;30.472;2023-05-10T08:14:11;28.30;37.70
29403;DHT22;16382;59.942;30.472;2023-05-10T08:16:38;28.50;37.50
29403;DHT22;16382;59.942;30.472;2023-05-10T08:19:05;28.60;37.10
29403;DHT22;16382;59.942;30.472;2023-05-10T08:21:34;28.70;36.90
29403;DHT22;16382;59.942;30.472;2023-05-10T08:24:03;29.00;36.80
29403;DHT22;16382;59.942;30.472;2023-05-10T08:26:32;29.10;36.30
29403;DHT22;16382;59.942;30.472;2023-05-10T08:28:59;29.30;37.20
29403;DHT22;16382;59.942;30.472;2023-05-10T08:31:26;29.50;36.60
29403;DHT22;16382;59.942;30.472;2023-05-10T08:33:53;29.80;35.40
29403;DHT22;16382;59.942;30.472;2023-05-10T08:36:21;29.90;35.80
29403;DHT22;16382;59.942;30.472;2023-05-10T08:38:51;30.00;34.70
29403;DHT22;16382;59.942;30.472;2023-05-10T08:41:20;30.00;35.30
29403;DHT22;16382;59.942;30.472;2023-05-10T08:43:48;29.80;35.70
29403;DHT22;16382;59.942;30.472;2023-05-10T08:46:16;29.90;35.30
29403;DHT22;16382;59.942;30.472;2023-05-10T08:48:44;30.00;35.20
29403;DHT22;16382;59.942;30.472;2023-05-10T08:51:14;30.30;34.90
29403;DHT22;16382;59.942;30.472;2023-05-10T08:53:42;30.40;34.70
29403;DHT22;16382;59.942;30.472;2023-05-10T08:56:11;30.60;35.70
29403;DHT22;16382;59.942;30.472;2023-05-10T08:58:38;30.40;34.70
29403;DHT22;16382;59.942;30.472;2023-05-10T09:01:06;30.10;35.10
29403;DHT22;16382;59.942;30.472;2023-05-10T09:03:34;30.20;35.60
29403;DHT22;16382;59.942;30.472;2023-05-10T09:06:02;30.50;34.60
29403;DHT22;16382;59.942;30.472;2023-05-10T09:08:29;30.60;35.10
29403;DHT22;16382;59.942;30.472;2023-05-10T09:10:57;30.50;35.10
29403;DHT22;16382;59.942;30.472;2023-05-10T09:13:26;30.50;36.70
29403;DHT22;16382;59.942;30.472;2023-05-10T09:15:54;30.50;36.20
29403;DHT22;16382;59.942;30.472;2023-05-10T09:18:21;30.50;35.40
29403;DHT22;16382;59.942;30.472;2023-05-10T09:20:49;30.40;35.70
29403;DHT22;16382;59.942;30.472;2023-05-10T09:23:16;30.40;35.80
29403;DHT22;16382;59.942;30.472;2023-05-10T09:25:43;30.80;35.60
29403;DHT22;16382;59.942;30.472;2023-05-10T09:28:11;31.00;35.50
29403;DHT22;16382;59.942;30.472;2023-05-10T09:30:40;31.20;35.40
29403;DHT22;16382;59.942;30.472;2023-05-10T09:33:09;31.30;35.10
29403;DHT22;16382;59.942;30.472;2023-05-10T09:35:36;31.50;35.20
29403;DHT22;16382;59.942;30.472;2023-05-10T09:38:06;31.70;34.70
29403;DHT22;16382;59.942;30.472;2023-05-10T09:40:33;32.00;35.10
29403;DHT22;16382;59.942;30.472;2023-05-10T09:43:01;32.10;35.70
29403;DHT22;16382;59.942;30.472;2023-05-10T09:45:30;32.00;35.50
29403;DHT22;16382;59.942;30.472;2023-05-10T09:48:00;32.00;35.50
29403;DHT22;16382;59.942;30.472;2023-05-10T09:50:29;32.30;35.70
29403;DHT22;16382;59.942;30.472;2023-05-10T09:52:58;32.20;35.50
29403;DHT22;16382;59.942;30.472;2023-05-10T09:55:38;32.20;35.60
29403;DHT22;16382;59.942;30.472;2023-05-10T09:58:05;32.00;36.10
29403;DHT22;16382;59.942;30.472;2023-05-10T10:00:37;31.80;36.70
29403;DHT22;16382;59.942;30.472;2023-05-10T10:03:07;31.60;36.10
29403;DHT22;16382;59.942;30.472;2023-05-10T10:05:40;31.70;36.10
29403;DHT22;16382;59.942;30.472;2023-05-10T10:08:08;32.00;35.90
29403;DHT22;16382;59.942;30.472;2023-05-10T10:10:36;31.90;36.10
29403;DHT22;16382;59.942;30.472;2023-05-10T10:13:04;32.10;36.10
29403;DHT22;16382;59.942;30.472;2023-05-10T10:15:32;32.10;36.00
29403;DHT22;16382;59.942;30.472;2023-05-10T10:18:00;32.30;35.30
29403;DHT22;16382;59.942;30.472;2023-05-10T10:20:29;32.60;35.70
29403;DHT22;16382;59.942;30.472;2023-05-10T10:22:56;32.80;35.60
29403;DHT22;16382;59.942;30.472;2023-05-10T10:25:23;32.80;35.00
29403;DHT22;16382;59.942;30.472;2023-05-10T10:28:05;32.90;35.30
29403;DHT22;16382;59.942;30.472;2023-05-10T10:30:39;33.00;33.80
29403;DHT22;16382;59.942;30.472;2023-05-10T10:33:27;32.80;33.70
29403;DHT22;16382;59.942;30.472;2023-05-10T10:36:00;32.80;33.70
29403;DHT22;16382;59.942;30.472;2023-05-10T10:38:36;33.00;33.30
29403;DHT22;16382;59.942;30.472;2023-05-10T10:41:10;33.20;33.70
29403;DHT22;16382;59.942;30.472;2023-05-10T10:43:38;33.20;33.00
29403;DHT22;16382;59.942;30.472;2023-05-10T10:46:12;33.10;33.20
29403;DHT22;16382;59.942;30.472;2023-05-10T10:48:40;33.00;33.10
29403;DHT22;16382;59.942;30.472;2023-05-10T10:51:09;33.10;32.60
29403;DHT22;16382;59.942;30.472;2023-05-10T10:53:37;33.20;33.10
29403;DHT22;16382;59.942;30.472;2023-05-10T10:56:06;33.40;32.50
29403;DHT22;16382;59.942;30.472;2023-05-10T10:58:36;33.40;32.40
29403;DHT22;16382;59.942;30.472;2023-05-10T11:01:14;33.70;31.90
29403;DHT22;16382;59.942;30.472;2023-05-10T11:04:17;34.00;31.80
29403;DHT22;16382;59.942;30.472;2023-05-10T11:06:46;34.30;31.50
29403;DHT22;16382;59.942;30.472;2023-05-10T11:09:13;34.50;31.50
29403;DHT22;16382;59.942;30.472;2023-05-10T11:11:52;34.50;30.90
29403;DHT22;16382;59.942;30.472;2023-05-10T11:14:21;34.60;30.90
29403;DHT22;16382;59.942;30.472;2023-05-10T11:16:49;34.60;30.40
29403;DHT22;16382;59.942;30.472;2023-05-10T11:19:17;34.60;30.30
29403;DHT22;16382;59.942;30.472;2023-05-10T11:21:48;34.40;31.00
29403;DHT22;16382;59.942;30.472;2023-05-10T11:24:17;34.40;30.90
29403;DHT22;16382;59.942;30.472;2023-05-10T11:26:44;34.50;31.80
29403;DHT22;16382;59.942;30.472;2023-05-10T11:29:13;34.70;31.10
29403;DHT22;16382;59.942;30.472;2023-05-10T11:31:44;34.90;30.90
29403;DHT22;16382;59.942;30.472;2023-05-10T11:34:22;35.30;30.30
29403;DHT22;16382;59.942;30.472;2023-05-10T11:36:52;35.40;30.70
29403;DHT22;16382;59.942;30.472;2023-05-10T11:39:20;35.50;30.60
29403;DHT22;16382;59.942;30.472;2023-05-10T11:41:49;35.30;30.10
29403;DHT22;16382;59.942;30.472;2023-05-10T11:44:16;35.10;30.30
29403;DHT22;16382;59.942;30.472;2023-05-10T11:46:43;34.80;29.90
29403;DHT22;16382;59.942;30.472;2023-05-10T11:49:11;34.80;30.10
29403;DHT22;16382;59.942;30.472;2023-05-10T11:51:39;35.00;30.00
29403;DHT22;16382;59.942;30.472;2023-05-10T11:54:11;35.30;29.80
29403;DHT22;16382;59.942;30.472;2023-05-10T11:56:39;35.50;29.60
29403;DHT22;16382;59.942;30.472;2023-05-10T11:59:07;35.60;29.40
29403;DHT22;16382;59.942;30.472;2023-05-10T12:01:35;35.50;29.40
29403;DHT22;16382;59.942;30.472;2023-05-10T12:04:02;35.40;29.70
29403;DHT22;16382;59.942;30.472;2023-05-10T12:06:31;35.50;29.80
29403;DHT22;16382;59.942;30.472;2023-05-10T12:08:59;35.70;29.80
29403;DHT22;16382;59.942;30.472;2023-05-10T12:11:28;35.90;29.60
29403;DHT22;16382;59.942;30.472;2023-05-10T12:13:56;35.80;29.60
29403;DHT22;16382;59.942;30.472;2023-05-10T12:16:25;35.80;29.60
29403;DHT22;16382;59.942;30.472;2023-05-10T12:18:54;35.80;29.30
29403;DHT22;16382;59.942;30.472;2023-05-10T12:21:21;35.80;29.40
29403;DHT22;16382;59.942;30.472;2023-05-10T12:23:50;35.60;29.30
29403;DHT22;16382;59.942;30.472;2023-05-10T12:26:21;35.20;29.30
29403;DHT22;16382;59.942;30.472;2023-05-10T12:28:50;34.90;29.90
29403;DHT22;16382;59.942;30.472;2023-05-10T12:31:18;34.80;29.40
29403;DHT22;16382;59.942;30.472;2023-05-10T12:33:45;34.80;29.40
29403;DHT22;16382;59.942;30.472;2023-05-10T12:36:16;35.00;29.60
29403;DHT22;16382;59.942;30.472;2023-05-10T12:38:45;35.00;29.40
29403;DHT22;16382;59.942;30.472;2023-05-10T12:41:15;35.40;29.10
29403;DHT22;16382;59.942;30.472;2023-05-10T12:43:44;35.70;28.50
29403;DHT22;16382;59.942;30.472;2023-05-10T12:46:15;35.50;28.70
29403;DHT22;16382;59.942;30.472;2023-05-10T12:48:45;35.60;28.70
29403;DHT22;16382;59.942;30.472;2023-05-10T12:51:13;35.40;28.40
29403;DHT22;16382;59.942;30.472;2023-05-10T12:53:43;35.00;28.80
29403;DHT22;16382;59.942;30.472;2023-05-10T12:56:11;35.20;28.70
29403;DHT22;16382;59.942;30.472;2023-05-10T12:58:39;35.30;29.00
29403;DHT22;16382;59.942;30.472;2023-05-10T13:01:06;35.50;28.50
29403;DHT22;16382;59.942;30.472;2023-05-10T13:03:35;35.50;28.50
29403;DHT22;16382;59.942;30.472;2023-05-10T13:06:03;35.70;28.20
29403;DHT22;16382;59.942;30.472;2023-05-10T13:08:30;35.50;28.60
29403;DHT22;16382;59.942;30.472;2023-05-10T13:10:59;35.30;28.60
29403;DHT22;16382;59.942;30.472;2023-05-10T13:13:26;35.40;28.80
29403;DHT22;16382;59.942;30.472;2023-05-10T13:15:53;35.50;28.20
29403;DHT22;16382;59.942;30.472;2023-05-10T13:18:23;35.50;28.90
29403;DHT22;16382;59.942;30.472;2023-05-10T13:20:53;35.60;28.90
29403;DHT22;16382;59.942;30.472;2023-05-10T13:23:21;35.60;28.90
29403;DHT22;16382;59.942;30.472;2023-05-10T13:25:48;35.60;28.90
29403;DHT22;16382;59.942;30.472;2023-05-10T13:28:15;35.70;27.90
29403;DHT22;16382;59.942;30.472;2023-05-10T13:30:43;35.80;28.40
29403;DHT22;16382;59.942;30.472;2023-05-10T13:33:10;35.70;28.60
29403;DHT22;16382;59.942;30.472;2023-05-10T13:35:37;35.70;28.50
29403;DHT22;16382;59.942;30.472;2023-05-10T13:38:06;35.60;28.40
29403;DHT22;16382;59.942;30.472;2023-05-10T13:40:33;35.30;28.70
29403;DHT22;16382;59.942;30.472;2023-05-10T13:43:01;35.10;28.90
29403;DHT22;16382;59.942;30.472;2023-05-10T13:45:29;35.10;28.80
29403;DHT22;16382;59.942;30.472;2023-05-10T13:47:56;35.20;29.20
29403;DHT22;16382;59.942;30.472;2023-05-10T13:50:23;34.80;28.70
29403;DHT22;16382;59.942;30.472;2023-05-10T13:52:50;34.50;28.90
29403;DHT22;16382;59.942;30.472;2023-05-10T13:59:00;33.90;29.80
29403;DHT22;16382;59.942;30.472;2023-05-10T14:01:28;33.50;29.70
29403;DHT22;16382;59.942;30.472;2023-05-10T14:03:55;33.30;30.30
29403;DHT22;16382;59.942;30.472;2023-05-10T14:06:23;33.20;30.00
29403;DHT22;16382;59.942;30.472;2023-05-10T14:08:50;33.10;30.20
29403;DHT22;16382;59.942;30.472;2023-05-10T14:11:17;32.40;30.40
29403;DHT22;16382;59.942;30.472;2023-05-10T14:13:45;32.10;30.60
29403;DHT22;16382;59.942;30.472;2023-05-10T14:16:14;32.00;30.70
29403;DHT22;16382;59.942;30.472;2023-05-10T14:18:41;31.90;31.10
29403;DHT22;16382;59.942;30.472;2023-05-10T14:21:09;31.40;31.20
29403;DHT22;16382;59.942;30.472;2023-05-10T14:23:36;30.80;32.20
29403;DHT22;16382;59.942;30.472;2023-05-10T14:26:13;29.80;32.60
29403;DHT22;16382;59.942;30.472;2023-05-10T14:28:44;28.50;33.80
29403;DHT22;16382;59.942;30.472;2023-05-10T14:31:11;27.50;34.10
29403;DHT22;16382;59.942;30.472;2023-05-10T14:33:42;26.60;35.20
29403;DHT22;16382;59.942;30.472;2023-05-10T14:36:10;25.60;36.50
29403;DHT22;16382;59.942;30.472;2023-05-10T14:38:37;24.80;36.60
29403;DHT22;16382;59.942;30.472;2023-05-10T14:41:05;24.10;38.30
29403;DHT22;16382;59.942;30.472;2023-05-10T14:43:32;23.60;39.00
29403;DHT22;16382;59.942;30.472;2023-05-10T14:46:00;23.30;39.80
29403;DHT22;16382;59.942;30.472;2023-05-10T14:48:27;22.90;40.50
29403;DHT22;16382;59.942;30.472;2023-05-10T14:50:56;22.60;40.00
29403;DHT22;16382;59.942;30.472;2023-05-10T14:53:40;22.50;40.50
29403;DHT22;16382;59.942;30.472;2023-05-10T14:56:08;22.30;40.30
29403;DHT22;16382;59.942;30.472;2023-05-10T14:58:35;22.10;40.60
29403;DHT22;16382;59.942;30.472;2023-05-10T15:01:04;22.00;40.70
29403;DHT22;16382;59.942;30.472;2023-05-10T15:03:31;21.80;40.70
29403;DHT22;16382;59.942;30.472;2023-05-10T15:06:00;21.70;41.80
29403;DHT22;16382;59.942;30.472;2023-05-10T15:08:27;21.60;41.80
29403;DHT22;16382;59.942;30.472;2023-05-10T15:10:54;21.60;42.00
29403;DHT22;16382;59.942;30.472;2023-05-10T15:13:22;21.50;42.30
29403;DHT22;16382;59.942;30.472;2023-05-10T15:15:49;21.40;42.00
29403;DHT22;16382;59.942;30.472;2023-05-10T15:18:16;21.30;41.90
29403;DHT22;16382;59.942;30.472;2023-05-10T15:20:44;21.10;42.20
29403;DHT22;16382;59.942;30.472;2023-05-10T15:23:12;21.00;43.30
29403;DHT22;16382;59.942;30.472;2023-05-10T15:25:40;20.90;42.70
29403;DHT22;16382;59.942;30.472;2023-05-10T15:28:07;20.90;43.30
29403;DHT22;16382;59.942;30.472;2023-05-10T15:30:35;20.70;43.60
29403;DHT22;16382;59.942;30.472;2023-05-10T15:33:03;20.70;43.10
29403;DHT22;16382;59.942;30.472;2023-05-10T15:35:30;20.50;42.90